Archival Weather

Republic

Farmingdale, New York (KFRG)

Report from: Wednesday, January 24, 2024 4:53 AM EST
Current time: Monday, June 17, 2024 2:24 AM EDT

Current weather – Weather history – Daily summaries
Weather forecast

Temperature2.2°C (36.0°F)
Wind chill0.7°C (33.2°F)
Dew point1.1°C (34.0°F)
Winds 3 kts (1.5 m/s, 3.5 mph) East (90°)
Visibility7 mi. (11.3 km)
Clouds Few clouds 700 ft. (213 m)
Ceiling: Overcast 4,900 ft. (1,494 m)
Altimeter30.56 in.Hg (1035 mB)
Relative humidity92 %
Density altitude-2,194 ft. (-669 m)
Sea-level pressure103.5 kPa (1035 mB, 30.56 in.Hg)
Remarks Fully automated report
Automated weather observing station with precipitation discriminator
Present weather sensor not operating
Freezing rain sensor not operating
Flight conditions Visual Meteorological Conditions
Raw dataKFRG 240953Z AUTO 09003KT 7SM FEW007 OVC049 02/01 A3056 RMK AO2 SLP350 T00220011 PWINO FZRANO
An error has occurred. This application may no longer respond until reloaded. Reload 🗙